Mount Stewart, Canada
Current Conditions -  °F | °C
As of 11:00 AM on Friday 28 Nov 2014 (Local Time) from CYYG Reporting Station
Overcast Overcast  
Wind Chill: 17°   Ceiling: 3300
Heat Index: 28°   Visibility: 15mi
Dew Point: 18°   Wind: 14mph
Humidity: 64%   Direction: 20°NNE
Pressure: 29.94"   Gusts: NA
Location:  46.36°N, 62.86°W
Report Text: CYYG 281500Z 02012KT 15SM OVC033 M02/M08 A2994 RMK SC8 SLP142
Loading
Personal Weather Stations






























Interactive Weather Map New forecast layout! Learn more

10-Day Weather Forecast

Advertisements
Track Severe Weather on mobile